Time;durP1;ratioP1;P1;durP2;ratioP2;P2;SDS_P1;SDS_P2;PMS_P1;PMS_P2;Temp;Humidity;BMP_temperature;BMP_pressure;BME280_temperature;BME280_humidity;BME280_pressure;Samples;Min_cycle;Max_cycle;Signal;HPM_P1;HPM_P2
2024/01/29 00:02:14;;;;;;;15.68;6.03;;;;;;;0.87;78.67;95463.56;5044212;28;20064;-73
2024/01/29 00:04:40;;;;;;;14.43;5.68;;;;;;;0.86;77.88;95465.41;5044301;28;20025;-73
2024/01/29 00:07:06;;;;;;;11.73;5.68;;;;;;;0.85;77.86;95462.97;5044357;28;20040;-73
2024/01/29 00:09:31;;;;;;;12.00;4.93;;;;;;;0.92;77.60;95477.69;5044257;28;20028;-73
2024/01/29 00:11:57;;;;;;;14.23;5.47;;;;;;;0.96;77.25;95476.22;5044344;28;20021;-73
2024/01/29 00:14:22;;;;;;;17.60;5.50;;;;;;;0.88;77.25;95479.13;5044213;28;20017;-73
2024/01/29 00:16:48;;;;;;;11.88;5.35;;;;;;;0.94;77.15;95473.03;5043918;28;20028;-73
2024/01/29 00:19:13;;;;;;;11.63;5.30;;;;;;;0.95;77.32;95479.88;5043818;28;20017;-73
2024/01/29 00:21:39;;;;;;;9.18;4.93;;;;;;;0.89;77.23;95479.91;5044071;28;20024;-73
2024/01/29 00:24:05;;;;;;;10.77;4.28;;;;;;;0.90;77.20;95476.28;5043933;28;20041;-73
2024/01/29 00:26:30;;;;;;;13.75;5.72;;;;;;;0.87;77.34;95471.44;5043999;28;20286;-73
2024/01/29 00:28:56;;;;;;;12.30;5.35;;;;;;;0.84;77.32;95471.88;5043990;28;20013;-73
2024/01/29 00:31:22;;;;;;;10.73;5.15;;;;;;;0.78;77.35;95470.91;5043765;28;20332;-73
2024/01/29 00:33:48;;;;;;;8.52;4.60;;;;;;;0.76;77.54;95475.56;5043806;28;20401;-73
2024/01/29 00:36:14;;;;;;;13.10;6.95;;;;;;;0.79;77.47;95480.38;5043545;28;20021;-73
2024/01/29 00:38:40;;;;;;;10.43;5.00;;;;;;;0.83;77.40;95476.31;5043605;28;20059;-74
2024/01/29 00:41:05;;;;;;;9.80;5.30;;;;;;;0.82;77.55;95481.78;5043540;28;20025;-73
2024/01/29 00:43:30;;;;;;;8.27;4.45;;;;;;;0.84;77.42;95482.38;5043776;28;20021;-73
2024/01/29 00:45:56;;;;;;;12.32;4.90;;;;;;;0.83;77.61;95481.56;5043561;28;20192;-73
2024/01/29 00:48:23;;;;;;;10.20;5.13;;;;;;;0.84;77.38;95482.38;5043479;28;20037;-73
2024/01/29 00:50:49;;;;;;;13.23;5.40;;;;;;;0.83;77.68;95492.06;5043505;28;20025;-73
2024/01/29 00:53:15;;;;;;;12.85;6.03;;;;;;;0.76;77.86;95484.25;5043303;28;20026;-73
2024/01/29 00:55:43;;;;;;;11.82;5.55;;;;;;;0.76;77.89;95486.06;5043402;28;20033;-73
2024/01/29 00:58:09;;;;;;;11.90;5.40;;;;;;;0.82;78.20;95485.22;5043441;28;20033;-73
2024/01/29 01:00:35;;;;;;;12.38;5.38;;;;;;;0.83;77.85;95486.81;5043134;28;20025;-73
2024/01/29 01:03:00;;;;;;;12.48;5.50;;;;;;;0.80;77.67;95485.41;5043438;28;20080;-73
2024/01/29 01:05:29;;;;;;;8.07;4.80;;;;;;;0.70;78.33;95486.91;5043184;28;20044;-72
2024/01/29 01:07:54;;;;;;;11.32;5.28;;;;;;;0.67;78.42;95488.16;5043124;28;20232;-73
2024/01/29 01:10:19;;;;;;;9.63;4.90;;;;;;;0.74;78.42;95490.72;5043013;28;20029;-73
2024/01/29 01:12:45;;;;;;;12.50;5.72;;;;;;;0.71;78.45;95486.72;5043207;28;20022;-73
2024/01/29 01:15:10;;;;;;;13.18;6.22;;;;;;;0.71;78.41;95489.31;5043079;28;20307;-73
2024/01/29 01:17:35;;;;;;;16.48;5.47;;;;;;;0.67;78.58;95492.56;5042969;28;20025;-73
2024/01/29 01:20:01;;;;;;;17.85;5.75;;;;;;;0.63;78.44;95492.19;5042989;28;20025;-73
2024/01/29 01:22:27;;;;;;;10.95;6.03;;;;;;;0.64;78.87;95485.13;5043031;28;20045;-73
2024/01/29 01:24:52;;;;;;;13.52;5.15;;;;;;;0.63;78.80;95486.94;5042886;28;20018;-73
2024/01/29 01:27:17;;;;;;;11.40;5.53;;;;;;;0.61;79.15;95494.19;5042769;28;20043;-72
2024/01/29 01:29:44;;;;;;;21.48;5.95;;;;;;;0.62;79.26;95487.94;5042793;28;20063;-71
2024/01/29 01:32:10;;;;;;;11.38;5.88;;;;;;;0.65;78.86;95489.34;5042895;28;20037;-72
2024/01/29 01:34:35;;;;;;;11.57;5.53;;;;;;;0.67;78.78;95487.31;5042868;28;20021;-72
2024/01/29 01:37:00;;;;;;;11.95;5.72;;;;;;;0.63;78.75;95483.50;5042838;28;20048;-72
2024/01/29 01:39:26;;;;;;;13.57;5.45;;;;;;;0.54;79.25;95493.44;5042614;28;20223;-72
2024/01/29 01:41:51;;;;;;;12.77;5.28;;;;;;;0.55;79.42;95487.16;5042854;28;20040;-72
2024/01/29 01:44:17;;;;;;;9.93;5.55;;;;;;;0.55;78.99;95474.88;5042801;28;20017;-72
2024/01/29 01:46:42;;;;;;;8.45;5.35;;;;;;;0.60;78.74;95475.03;5042652;28;20024;-73
2024/01/29 01:49:09;;;;;;;14.38;5.75;;;;;;;0.53;79.04;95466.41;5042583;28;20024;-73
2024/01/29 01:51:34;;;;;;;11.80;5.63;;;;;;;0.67;78.71;95476.81;5042638;28;20367;-73
2024/01/29 01:54:02;;;;;;;9.55;5.35;;;;;;;0.68;78.62;95479.25;5042854;28;20032;-73
2024/01/29 01:56:28;;;;;;;11.18;6.00;;;;;;;0.67;78.50;95482.06;5043071;28;20021;-73
2024/01/29 01:58:56;;;;;;;12.82;5.32;;;;;;;0.71;78.46;95478.00;5042505;28;20216;-73
2024/01/29 02:01:22;;;;;;;13.90;5.70;;;;;;;0.70;78.67;95481.66;5042580;28;20197;-73
2024/01/29 02:03:48;;;;;;;11.70;5.72;;;;;;;0.70;78.34;95477.22;5042439;28;20029;-73
2024/01/29 02:06:13;;;;;;;17.20;5.38;;;;;;;0.73;78.31;95479.44;5042516;28;20041;-73
2024/01/29 02:08:39;;;;;;;11.32;5.38;;;;;;;0.73;78.10;95470.72;5042515;28;20044;-73
2024/01/29 02:11:05;;;;;;;10.07;5.38;;;;;;;0.75;78.23;95476.56;5042565;28;20040;-73
2024/01/29 02:13:31;;;;;;;10.98;5.00;;;;;;;0.81;77.96;95478.34;5042626;28;20029;-72
2024/01/29 02:15:57;;;;;;;13.05;5.43;;;;;;;0.87;77.85;95481.94;5042597;28;20215;-73
2024/01/29 02:18:22;;;;;;;12.60;5.85;;;;;;;0.94;77.51;95483.53;5045857;28;20029;-73
2024/01/29 02:20:48;;;;;;;15.32;6.93;;;;;;;0.93;77.26;95487.16;5046295;28;20025;-72
2024/01/29 02:23:13;;;;;;;9.95;4.65;;;;;;;0.95;77.17;95484.31;5046224;28;20053;-73
2024/01/29 02:25:38;;;;;;;13.23;5.65;;;;;;;0.91;77.26;95483.94;5046247;28;20342;-73
2024/01/29 02:28:04;;;;;;;14.38;5.85;;;;;;;0.90;77.34;95489.41;5046247;28;20033;-73
2024/01/29 02:30:29;;;;;;;13.82;5.30;;;;;;;0.87;77.32;95482.75;5046107;28;20047;-73
2024/01/29 02:32:55;;;;;;;9.27;5.38;;;;;;;0.85;77.44;95479.53;5046134;28;20041;-73
2024/01/29 02:35:20;;;;;;;15.32;5.90;;;;;;;0.86;77.31;95488.22;5046088;28;20139;-73
2024/01/29 02:37:45;;;;;;;11.50;6.85;;;;;;;0.85;77.59;95479.53;5046035;28;20039;-74
2024/01/29 02:40:11;;;;;;;10.30;5.00;;;;;;;0.90;77.79;95487.59;5045853;28;20083;-74
2024/01/29 02:42:36;;;;;;;14.63;5.78;;;;;;;0.93;77.41;95487.16;5045995;28;20021;-74
2024/01/29 02:45:05;;;;;;;15.43;6.15;;;;;;;0.98;77.13;95483.91;5045768;28;20335;-74
2024/01/29 02:47:30;;;;;;;20.25;6.05;;;;;;;1.04;76.69;95492.72;5046027;28;20040;-73
2024/01/29 02:49:56;;;;;;;12.85;5.57;;;;;;;1.04;76.53;95490.09;5045879;28;20021;-73
2024/01/29 02:52:21;;;;;;;12.45;5.70;;;;;;;1.09;76.53;95487.66;5045639;28;20021;-73
2024/01/29 02:54:47;;;;;;;12.02;4.38;;;;;;;1.04;76.49;95492.72;5045732;28;20025;-73
2024/01/29 02:57:12;;;;;;;10.23;5.82;;;;;;;1.12;76.38;95489.84;5045626;28;20029;-73
2024/01/29 02:59:38;;;;;;;9.63;5.22;;;;;;;1.18;76.09;95492.44;5045485;28;20025;-73
2024/01/29 03:02:03;;;;;;;11.77;5.75;;;;;;;1.16;75.89;95488.41;5045520;28;20045;-73
2024/01/29 03:04:29;;;;;;;11.35;4.88;;;;;;;1.15;75.65;95495.47;5045831;28;20021;-73
2024/01/29 03:06:54;;;;;;;10.00;5.05;;;;;;;1.18;75.59;95494.25;5045478;28;20029;-72
2024/01/29 03:09:20;;;;;;;12.27;5.90;;;;;;;1.16;75.75;95491.84;5045506;28;20018;-73
2024/01/29 03:11:45;;;;;;;9.70;5.05;;;;;;;1.24;75.68;95492.59;5045208;28;20021;-73
2024/01/29 03:14:10;;;;;;;10.80;6.28;;;;;;;1.26;75.46;95486.09;5045148;28;20319;-73
2024/01/29 03:16:36;;;;;;;11.50;6.03;;;;;;;1.32;75.29;95487.91;5045393;28;20060;-73
2024/01/29 03:19:02;;;;;;;11.75;5.72;;;;;;;1.32;75.10;95490.53;5045152;28;20029;-73
2024/01/29 03:21:28;;;;;;;11.75;5.72;;;;;;;1.31;74.99;95486.28;5045299;28;20374;-72
2024/01/29 03:23:56;;;;;;;11.07;5.03;;;;;;;1.31;74.86;95488.09;5045050;28;20057;-72
2024/01/29 03:26:23;;;;;;;13.10;5.47;;;;;;;1.31;74.94;95481.00;5045044;28;20060;-73
2024/01/29 03:28:48;;;;;;;11.48;4.70;;;;;;;1.36;75.06;95486.44;5043770;28;20021;-73
2024/01/29 03:31:14;;;;;;;10.98;5.20;;;;;;;1.37;74.96;95476.72;5045095;28;20052;-72
2024/01/29 03:33:39;;;;;;;11.60;5.50;;;;;;;1.42;74.97;95484.75;5045012;28;20044;-72
2024/01/29 03:36:06;;;;;;;10.80;5.75;;;;;;;1.54;75.04;95487.50;5044919;28;20028;-72
2024/01/29 03:38:32;;;;;;;13.75;5.90;;;;;;;1.62;74.54;95479.31;5044845;28;20201;-72
2024/01/29 03:40:58;;;;;;;12.80;4.85;;;;;;;1.71;74.15;95492.97;5044915;28;20033;-72
2024/01/29 03:43:24;;;;;;;12.05;5.78;;;;;;;1.73;73.25;95483.06;5044664;28;20294;-72
2024/01/29 03:45:50;;;;;;;10.40;6.38;;;;;;;1.79;73.26;95485.63;5044703;28;20083;-72
2024/01/29 03:48:15;;;;;;;14.07;5.68;;;;;;;1.79;73.22;95490.91;5044687;28;20276;-72
2024/01/29 03:50:41;;;;;;;15.50;6.75;;;;;;;1.89;73.06;95490.38;5044668;28;20028;-72
2024/01/29 03:53:06;;;;;;;12.70;6.55;;;;;;;1.97;72.67;95489.28;5044541;28;20342;-72
2024/01/29 03:55:31;;;;;;;13.32;6.30;;;;;;;2.00;72.61;95487.03;5044599;28;20035;-72
2024/01/29 03:57:57;;;;;;;15.93;6.45;;;;;;;2.04;72.33;95486.59;5044608;28;20025;-72
2024/01/29 04:00:23;;;;;;;12.27;6.95;;;;;;;2.06;72.50;95482.72;5044367;28;20025;-72
2024/01/29 04:02:49;;;;;;;20.20;7.22;;;;;;;2.09;72.34;95484.09;5044446;28;20096;-72
2024/01/29 04:05:15;;;;;;;13.48;6.43;;;;;;;2.10;72.50;95486.53;5044329;28;20223;-72
2024/01/29 04:07:41;;;;;;;12.93;6.95;;;;;;;2.16;72.21;95482.22;5044130;28;20017;-72
2024/01/29 04:10:07;;;;;;;13.20;6.65;;;;;;;2.17;72.30;95479.34;5044209;28;20120;-72
2024/01/29 04:12:32;;;;;;;12.95;6.72;;;;;;;2.19;71.84;95474.66;5044113;28;20025;-72
2024/01/29 04:14:57;;;;;;;15.48;6.63;;;;;;;2.20;71.93;95486.03;5044285;28;20021;-73
2024/01/29 04:17:23;;;;;;;12.85;5.82;;;;;;;2.24;71.91;95475.84;5043989;28;20021;-73
2024/01/29 04:19:48;;;;;;;14.07;5.55;;;;;;;2.35;71.51;95485.63;5043890;28;20026;-73
2024/01/29 04:22:13;;;;;;;16.55;6.43;;;;;;;2.37;71.53;95487.00;5043958;28;20024;-74
2024/01/29 04:24:39;;;;;;;13.43;6.72;;;;;;;2.43;71.22;95495.84;5044245;28;20041;-73
2024/01/29 04:27:04;;;;;;;12.90;5.82;;;;;;;2.47;71.04;95490.97;5044389;28;20017;-74
2024/01/29 04:29:30;;;;;;;14.23;6.10;;;;;;;2.51;70.83;95494.75;5044334;28;20085;-72
2024/01/29 04:31:55;;;;;;;16.52;7.13;;;;;;;2.53;70.69;95495.34;5044097;28;20026;-72
2024/01/29 04:34:20;;;;;;;22.42;10.82;;;;;;;2.49;71.16;95502.88;5043854;28;20025;-72
2024/01/29 04:36:46;;;;;;;18.17;9.88;;;;;;;2.53;72.01;95506.66;5043805;28;20021;-71
2024/01/29 04:39:11;;;;;;;23.63;11.23;;;;;;;2.51;72.30;95508.72;5043436;28;20021;-71
2024/01/29 04:41:37;;;;;;;25.50;11.07;;;;;;;2.53;72.63;95505.88;5043758;28;20025;-73
2024/01/29 04:44:02;;;;;;;21.50;11.27;;;;;;;2.53;72.56;95505.88;5043770;28;20025;-73
2024/01/29 04:46:28;;;;;;;20.42;10.50;;;;;;;2.51;72.77;95508.72;5043888;28;20021;-72
2024/01/29 04:48:53;;;;;;;19.50;9.43;;;;;;;2.54;72.67;95513.50;5043841;28;20017;-73
2024/01/29 04:51:20;;;;;;;22.35;10.70;;;;;;;2.52;72.63;95505.03;5043671;28;20053;-72
2024/01/29 04:53:45;;;;;;;21.73;10.77;;;;;;;2.54;72.50;95516.16;5043391;28;20028;-73
2024/01/29 04:56:12;;;;;;;21.90;9.90;;;;;;;2.52;72.76;95520.03;5043462;28;20029;-73
2024/01/29 04:58:37;;;;;;;21.10;9.77;;;;;;;2.51;72.61;95535.03;5043505;28;20037;-73
2024/01/29 05:01:03;;;;;;;19.40;10.48;;;;;;;2.51;72.58;95532.41;5043720;28;20070;-74
2024/01/29 05:03:29;;;;;;;20.10;10.57;;;;;;;2.51;72.56;95534.22;5043850;28;20067;-74
2024/01/29 05:05:55;;;;;;;19.15;9.93;;;;;;;2.53;72.69;95537.44;5043638;28;20311;-72
2024/01/29 05:08:20;;;;;;;16.27;8.40;;;;;;;2.51;72.77;95540.28;5043274;28;20032;-72
2024/01/29 05:10:46;;;;;;;18.90;10.15;;;;;;;2.55;72.56;95544.09;5043079;28;20192;-72
2024/01/29 05:13:12;;;;;;;17.30;8.68;;;;;;;2.54;72.17;95542.47;5043398;28;20021;-72
2024/01/29 05:15:37;;;;;;;19.38;9.23;;;;;;;2.54;72.26;95549.56;5043402;28;20033;-72
2024/01/29 05:18:03;;;;;;;20.20;9.07;;;;;;;2.51;72.36;95553.47;5043262;28;20045;-72
2024/01/29 05:20:29;;;;;;;17.25;8.80;;;;;;;2.54;72.16;95545.09;5043115;28;20131;-73
2024/01/29 05:22:55;;;;;;;18.95;7.93;;;;;;;2.59;71.84;95553.16;5043096;28;20109;-71
2024/01/29 05:25:21;;;;;;;12.68;7.40;;;;;;;2.56;71.80;95553.59;5043133;28;20029;-72
2024/01/29 05:27:46;;;;;;;14.98;7.63;;;;;;;2.53;71.76;95554.03;5043222;28;20385;-72
2024/01/29 05:30:12;;;;;;;13.65;6.30;;;;;;;2.51;71.70;95552.66;5042806;28;20362;-72
2024/01/29 05:32:37;;;;;;;13.02;7.53;;;;;;;2.49;72.04;95549.44;5042871;28;20071;-72
2024/01/29 05:35:04;;;;;;;12.80;7.53;;;;;;;2.51;71.67;95555.28;5042647;28;20316;-72
2024/01/29 05:37:32;;;;;;;13.43;7.63;;;;;;;2.50;71.61;95551.84;5043046;28;20230;-72
2024/01/29 05:39:57;;;;;;;19.40;8.88;;;;;;;2.50;71.69;95554.47;5042799;28;20040;-72
2024/01/29 05:42:23;;;;;;;20.58;10.43;;;;;;;2.46;71.57;95550.66;5043001;28;20025;-73
2024/01/29 05:44:48;;;;;;;32.88;13.10;;;;;;;2.47;71.53;95548.84;5042880;28;20033;-72
2024/01/29 05:47:15;;;;;;;52.17;16.73;;;;;;;2.49;71.33;95562.59;5042839;28;20030;-72
2024/01/29 05:49:40;;;;;;;58.33;18.83;;;;;;;2.45;71.64;95562.22;5042849;28;20036;-72
2024/01/29 05:52:06;;;;;;;76.88;21.55;;;;;;;2.45;71.50;95561.44;5044321;28;20228;-72
2024/01/29 05:54:31;;;;;;;72.40;22.80;;;;;;;2.44;71.44;95560.59;5046771;28;20040;-72
2024/01/29 05:56:57;;;;;;;54.08;18.58;;;;;;;2.44;71.42;95563.25;5046951;28;20056;-72
2024/01/29 05:59:22;;;;;;;29.50;11.40;;;;;;;2.45;71.21;95562.22;5046855;28;20029;-72
2024/01/29 06:01:48;;;;;;;26.95;9.13;;;;;;;2.50;71.02;95569.47;5046581;28;20025;-73
2024/01/29 06:04:13;;;;;;;17.52;9.02;;;;;;;2.49;71.05;95570.50;5046404;28;20025;-72
2024/01/29 06:06:41;;;;;;;15.75;7.20;;;;;;;2.49;71.00;95568.66;5046510;28;20315;-72
2024/01/29 06:09:06;;;;;;;15.15;8.23;;;;;;;2.49;70.98;95567.88;5046467;28;20038;-73
2024/01/29 06:11:32;;;;;;;19.70;9.52;;;;;;;2.50;71.07;95559.72;5046542;28;20438;-72
2024/01/29 06:13:58;;;;;;;14.13;8.30;;;;;;;2.53;71.07;95569.84;5046534;28;20029;-72
2024/01/29 06:16:25;;;;;;;22.02;11.50;;;;;;;2.53;71.19;95569.03;5046245;28;20021;-73
2024/01/29 06:18:50;;;;;;;50.50;21.52;;;;;;;2.53;71.19;95567.19;5046459;28;20029;-73
2024/01/29 06:21:16;;;;;;;58.63;23.52;;;;;;;2.59;70.87;95568.16;5046321;28;20327;-73
2024/01/29 06:23:42;;;;;;;35.83;16.00;;;;;;;2.60;71.06;95567.91;5045950;28;20284;-73
2024/01/29 06:26:07;;;;;;;25.98;11.82;;;;;;;2.62;70.83;95575.59;5046219;28;20224;-72
2024/01/29 06:28:33;;;;;;;17.17;8.23;;;;;;;2.67;70.51;95574.94;5046012;28;20037;-73
2024/01/29 06:30:58;;;;;;;15.07;7.63;;;;;;;2.68;70.42;95581.81;5046313;28;20021;-73
2024/01/29 06:33:24;;;;;;;20.65;7.35;;;;;;;2.72;69.98;95580.34;5046346;28;20104;-73
2024/01/29 06:35:50;;;;;;;21.63;8.32;;;;;;;2.74;69.63;95594.88;5046180;28;20017;-73
2024/01/29 06:38:15;;;;;;;12.18;6.72;;;;;;;2.79;69.27;95592.41;5045756;28;20216;-73
2024/01/29 06:40:41;;;;;;;17.63;6.90;;;;;;;2.81;69.08;95586.94;5046030;28;20025;-72
2024/01/29 06:43:07;;;;;;;12.95;6.40;;;;;;;2.88;68.75;95592.91;5045828;28;20044;-71
2024/01/29 06:45:32;;;;;;;10.50;5.88;;;;;;;2.94;68.29;95596.50;5045878;28;20041;-71
2024/01/29 06:47:58;;;;;;;11.23;6.30;;;;;;;2.96;68.12;95592.59;5046045;28;20048;-73
2024/01/29 06:50:23;;;;;;;15.63;7.07;;;;;;;2.98;68.00;95598.44;5045536;28;20045;-72
2024/01/29 06:52:49;;;;;;;14.13;7.30;;;;;;;3.00;67.82;95596.41;5045515;28;20025;-71
2024/01/29 06:55:17;;;;;;;19.23;7.47;;;;;;;3.05;67.60;95597.56;5045844;28;20062;-72
2024/01/29 06:57:42;;;;;;;11.52;5.97;;;;;;;3.07;67.67;95598.94;5045635;28;20025;-72
2024/01/29 07:00:09;;;;;;;12.20;6.32;;;;;;;3.09;67.41;95598.72;5045755;28;20029;-71
2024/01/29 07:02:35;;;;;;;11.85;5.85;;;;;;;3.11;66.84;95604.56;5045557;28;20026;-74
2024/01/29 07:05:00;;;;;;;12.57;6.45;;;;;;;3.11;66.55;95601.94;5045805;28;20032;-72
2024/01/29 07:07:26;;;;;;;10.35;5.72;;;;;;;3.12;65.94;95600.94;5045445;28;20342;-73
2024/01/29 07:09:54;;;;;;;12.23;5.55;;;;;;;3.12;65.98;95598.28;5045230;28;20036;-73
2024/01/29 07:12:19;;;;;;;14.32;6.35;;;;;;;3.11;65.77;95600.09;5045191;28;20026;-73
2024/01/29 07:14:45;;;;;;;29.05;6.38;;;;;;;3.10;65.29;95602.97;5045227;28;20143;-74
2024/01/29 07:17:10;;;;;;;10.85;5.72;;;;;;;3.13;64.81;95605.16;5045281;28;20040;-74
2024/01/29 07:19:36;;;;;;;13.82;6.30;;;;;;;3.13;64.56;95597.25;5045001;28;20027;-74
2024/01/29 07:22:04;;;;;;;12.30;6.10;;;;;;;3.09;64.67;95604.00;5045141;28;20017;-72
2024/01/29 07:24:33;;;;;;;11.10;5.70;;;;;;;3.11;64.18;95607.22;5045134;28;20045;-72
2024/01/29 07:26:59;;;;;;;9.88;5.80;;;;;;;3.14;64.26;95606.78;5045311;28;20259;-73
2024/01/29 07:29:26;;;;;;;12.18;5.93;;;;;;;3.19;63.81;95596.34;5045050;28;20017;-74
2024/01/29 07:31:55;;;;;;;8.98;5.40;;;;;;;3.14;63.46;95602.31;5045193;28;20040;-74
2024/01/29 07:34:22;;;;;;;10.18;6.03;;;;;;;3.08;63.46;95602.41;5044850;28;20047;-74
2024/01/29 07:36:47;;;;;;;11.85;6.88;;;;;;;2.98;63.87;95598.44;5044758;28;20363;-72
2024/01/29 07:39:13;;;;;;;9.88;6.28;;;;;;;3.05;64.05;95602.81;5044964;28;20025;-73
2024/01/29 07:41:42;;;;;;;10.88;5.78;;;;;;;3.06;63.88;95609.72;5044520;28;20032;-74
2024/01/29 07:44:08;;;;;;;12.32;6.25;;;;;;;3.11;63.82;95596.66;5044814;28;20109;-74
2024/01/29 07:46:33;;;;;;;17.52;6.78;;;;;;;3.23;63.05;95608.06;5045033;28;20040;-73
2024/01/29 07:49:01;;;;;;;18.88;5.30;;;;;;;3.32;62.68;95603.28;5044809;28;20025;-72
2024/01/29 07:51:27;;;;;;;12.57;5.22;;;;;;;3.35;62.67;95606.25;5044592;28;20031;-72
2024/01/29 07:53:53;;;;;;;13.20;6.00;;;;;;;3.43;62.61;95602.50;5044741;28;20021;-73
2024/01/29 07:56:18;;;;;;;11.05;5.70;;;;;;;3.54;62.04;95600.94;5043506;28;20033;-77
2024/01/29 07:58:44;;;;;;;13.77;6.07;;;;;;;3.46;61.43;95603.88;5044527;28;20040;-68
2024/01/29 08:01:09;;;;;;;11.45;6.63;;;;;;;3.39;61.70;95614.53;5044419;28;20033;-68
2024/01/29 08:03:35;;;;;;;19.42;7.05;;;;;;;3.49;61.20;95608.72;5044290;28;20251;-68
2024/01/29 08:06:01;;;;;;;17.60;5.78;;;;;;;3.49;61.86;95614.78;5044603;28;20193;-68
2024/01/29 08:08:27;;;;;;;11.35;6.18;;;;;;;3.60;61.19;95610.56;5044400;28;20028;-68
2024/01/29 08:10:52;;;;;;;10.68;5.75;;;;;;;3.69;61.06;95611.88;5044217;28;20017;-75
2024/01/29 08:13:18;;;;;;;14.70;6.82;;;;;;;3.82;60.63;95616.13;5043930;28;20029;-74
2024/01/29 08:15:43;;;;;;;18.55;6.22;;;;;;;3.90;60.65;95610.50;5043302;28;20096;-73
2024/01/29 08:18:09;;;;;;;14.13;6.03;;;;;;;4.04;58.25;95616.38;5043959;28;20061;-73
2024/01/29 08:20:34;;;;;;;13.07;5.82;;;;;;;4.12;58.17;95625.78;5042592;28;20029;-71
2024/01/29 08:23:00;;;;;;;13.20;5.85;;;;;;;4.16;57.34;95629.59;5043575;28;20053;-72
2024/01/29 08:25:26;;;;;;;13.45;6.55;;;;;;;4.19;57.82;95632.56;5043929;28;20017;-71
2024/01/29 08:27:52;;;;;;;22.35;7.28;;;;;;;4.16;57.22;95634.88;5043591;28;20091;-71
2024/01/29 08:30:17;;;;;;;18.50;7.97;;;;;;;4.23;56.93;95638.19;5043648;28;20292;-71
2024/01/29 08:32:43;;;;;;;14.65;5.85;;;;;;;4.29;55.96;95631.97;5043527;28;20025;-71
2024/01/29 08:35:10;;;;;;;10.73;4.28;;;;;;;4.39;53.60;95642.78;5043305;28;20036;-71
2024/01/29 08:37:36;;;;;;;15.07;4.43;;;;;;;4.46;53.02;95644.50;5043543;28;20025;-71
2024/01/29 08:40:02;;;;;;;15.82;5.05;;;;;;;4.53;53.32;95647.84;5043533;28;20084;-71
2024/01/29 08:42:28;;;;;;;11.88;5.03;;;;;;;4.61;53.13;95647.47;5043417;28;20037;-72
2024/01/29 08:44:56;;;;;;;13.27;4.65;;;;;;;4.63;52.33;95656.78;5042043;28;20021;-71
2024/01/29 08:47:22;;;;;;;12.65;4.43;;;;;;;4.63;52.68;95659.41;5043228;28;20089;-71
2024/01/29 08:49:49;;;;;;;9.02;4.40;;;;;;;4.63;51.29;95659.41;5043188;28;20017;-71
2024/01/29 08:52:15;;;;;;;12.27;4.60;;;;;;;4.68;51.55;95652.63;5042083;28;20033;-71
2024/01/29 08:54:40;;;;;;;9.88;4.72;;;;;;;4.73;51.17;95658.03;5043046;28;20228;-71
2024/01/29 08:57:06;;;;;;;15.50;5.25;;;;;;;4.77;51.49;95659.19;5043070;28;20021;-71
2024/01/29 08:59:31;;;;;;;12.95;5.60;;;;;;;4.81;50.60;95655.03;5042818;28;20056;-71
2024/01/29 09:01:57;;;;;;;9.00;4.68;;;;;;;4.87;50.54;95664.69;5043006;28;20021;-72
2024/01/29 09:04:23;;;;;;;15.35;6.13;;;;;;;4.79;50.60;95649.97;5043082;28;20112;-71
2024/01/29 09:06:49;;;;;;;12.10;4.40;;;;;;;4.76;50.30;95662.84;5042954;28;20311;-73
2024/01/29 09:09:14;;;;;;;10.25;4.32;;;;;;;4.75;49.69;95675.25;5041649;28;20403;-72
2024/01/29 09:11:39;;;;;;;16.85;5.10;;;;;;;4.77;49.45;95659.97;5043341;28;20128;-76
2024/01/29 09:14:05;;;;;;;10.60;4.70;;;;;;;4.82;49.50;95660.09;5042909;28;20021;-77
2024/01/29 09:16:32;;;;;;;11.90;3.78;;;;;;;4.94;47.82;95657.41;5043314;28;20096;-74
2024/01/29 09:18:58;;;;;;;11.15;5.28;;;;;;;4.95;48.05;95648.47;5042947;28;20028;-73
2024/01/29 09:21:23;;;;;;;10.13;5.05;;;;;;;5.00;48.26;95651.19;5042901;28;20021;-73
2024/01/29 09:23:49;;;;;;;10.95;4.40;;;;;;;5.10;48.63;95655.09;5041642;28;20056;-74
2024/01/29 09:26:15;;;;;;;8.30;4.40;;;;;;;5.17;48.49;95651.28;5042847;28;20017;-73
2024/01/29 09:28:41;;;;;;;11.48;4.15;;;;;;;5.27;48.09;95652.50;5041688;28;20063;-73
2024/01/29 09:31:07;;;;;;;11.52;5.47;;;;;;;5.17;48.68;95647.81;5042631;28;20066;-72
2024/01/29 09:33:32;;;;;;;13.90;4.85;;;;;;;5.13;48.68;95639.56;5042846;28;20013;-73
2024/01/29 09:35:58;;;;;;;17.70;5.35;;;;;;;5.17;49.03;95650.47;5042747;28;20021;-76
2024/01/29 09:38:23;;;;;;;16.88;4.20;;;;;;;5.14;48.75;95646.44;5042649;28;20028;-77
2024/01/29 09:40:49;;;;;;;13.38;4.57;;;;;;;5.21;47.29;95646.31;5042609;28;20056;-76
2024/01/29 09:43:20;;;;;;;11.55;5.18;;;;;;;5.21;47.39;95635.72;5040949;28;20342;-83
2024/01/29 09:45:48;;;;;;;11.90;3.85;;;;;;;5.25;47.25;95647.47;5040934;28;20216;-76
2024/01/29 09:48:15;;;;;;;13.38;4.00;;;;;;;5.25;46.95;95636.91;5040919;28;20228;-75
2024/01/29 09:50:43;;;;;;;8.55;3.78;;;;;;;5.29;46.36;95632.75;5040878;28;20035;-76
2024/01/29 09:53:11;;;;;;;10.80;3.38;;;;;;;5.30;45.92;95636.97;5041447;28;20028;-76
2024/01/29 09:55:36;;;;;;;9.48;3.42;;;;;;;5.32;46.21;95636.75;5042486;28;20022;-76
2024/01/29 09:58:02;;;;;;;7.72;3.55;;;;;;;5.33;45.71;95625.13;5042784;28;20052;-76
2024/01/29 10:00:27;;;;;;;8.95;3.55;;;;;;;5.28;45.76;95636.41;5042522;28;20041;-75
2024/01/29 10:02:54;;;;;;;7.22;3.70;;;;;;;5.22;46.15;95632.06;5042546;28;20092;-76
2024/01/29 10:05:19;;;;;;;11.65;3.33;;;;;;;5.28;45.70;95639.06;5042486;28;20336;-76
2024/01/29 10:07:45;;;;;;;11.35;4.10;;;;;;;5.20;46.06;95636.78;5042342;28;20089;-76
2024/01/29 10:10:11;;;;;;;10.10;3.30;;;;;;;5.12;45.17;95634.50;5042471;28;20127;-76
2024/01/29 10:12:36;;;;;;;18.73;3.35;;;;;;;4.93;45.32;95639.16;5041516;28;20358;-76
2024/01/29 10:15:03;;;;;;;16.50;3.72;;;;;;;4.98;45.48;95631.31;5040515;28;20043;-76
2024/01/29 10:17:28;;;;;;;9.75;2.92;;;;;;;5.05;45.35;95641.75;5042107;28;20038;-76
2024/01/29 10:19:53;;;;;;;17.23;3.22;;;;;;;5.15;45.30;95637.50;5042245;28;20092;-76
2024/01/29 10:22:25;;;;;;;19.38;4.30;;;;;;;5.08;44.49;95628.09;5042338;28;20088;-76
2024/01/29 10:25:03;;;;;;;10.65;3.65;;;;;;;4.88;45.54;95636.41;5042131;28;20263;-76
2024/01/29 10:27:29;;;;;;;8.45;3.58;;;;;;;4.86;46.21;95634.00;5042383;28;20033;-76
2024/01/29 10:29:55;;;;;;;10.15;3.42;;;;;;;4.58;46.94;95632.91;5042232;28;20080;-76
2024/01/29 10:32:21;;;;;;;14.82;3.40;;;;;;;4.66;46.38;95626.47;5041031;28;20412;-77
2024/01/29 10:34:46;;;;;;;17.05;3.28;;;;;;;4.60;46.35;95630.84;5040319;28;20028;-77
2024/01/29 10:37:14;;;;;;;14.48;4.45;;;;;;;4.56;46.03;95624.41;5041250;28;20033;-76
2024/01/29 10:39:41;;;;;;;9.52;4.07;;;;;;;4.50;46.68;95625.34;5045300;28;20022;-78
2024/01/29 10:42:08;;;;;;;8.95;2.97;;;;;;;4.39;46.45;95626.13;5045202;28;20381;-77
2024/01/29 10:44:37;;;;;;;7.38;3.13;;;;;;;4.34;46.73;95616.28;5045370;28;20043;-76
2024/01/29 10:47:08;;;;;;;8.45;3.28;;;;;;;4.27;46.59;95618.22;5045383;28;20026;-78
2024/01/29 10:49:35;;;;;;;9.38;3.72;;;;;;;4.32;46.83;95620.19;5045998;28;20022;-75
2024/01/29 10:52:01;;;;;;;7.93;3.60;;;;;;;4.28;47.19;95608.47;5045679;28;20037;-76
2024/01/29 10:54:28;;;;;;;7.55;3.03;;;;;;;4.22;47.85;95618.91;5045670;28;20125;-76
2024/01/29 10:56:55;;;;;;;8.98;2.90;;;;;;;4.20;47.47;95610.41;5044480;28;20105;-76
2024/01/29 10:59:22;;;;;;;17.65;3.47;;;;;;;4.43;47.18;95619.34;5045435;28;20029;-76
2024/01/29 11:01:49;;;;;;;8.65;3.20;;;;;;;4.48;46.51;95601.00;5045593;28;20025;-76
2024/01/29 11:04:19;;;;;;;9.88;2.78;;;;;;;4.46;46.33;95608.34;5045541;28;20029;-76
2024/01/29 11:06:52;;;;;;;9.88;2.72;;;;;;;4.48;46.42;95610.75;5045278;28;20025;-76
2024/01/29 11:09:22;;;;;;;12.20;3.15;;;;;;;4.45;46.46;95612.00;5045274;28;20017;-76
2024/01/29 11:11:51;;;;;;;11.02;3.03;;;;;;;4.45;46.13;95601.44;5045169;28;20093;-76
2024/01/29 11:14:19;;;;;;;5.40;2.40;;;;;;;4.57;45.85;95598.78;5045261;28;20242;-76
2024/01/29 11:16:45;;;;;;;3.40;1.80;;;;;;;4.72;44.87;95595.66;5045301;28;20021;-76
2024/01/29 11:19:11;;;;;;;4.38;2.08;;;;;;;4.78;45.42;95592.09;5045058;28;20072;-76
2024/01/29 11:21:50;;;;;;;7.57;2.20;;;;;;;4.79;45.21;95585.78;5045010;28;20056;-77
2024/01/29 11:24:16;;;;;;;5.90;1.92;;;;;;;4.73;45.29;95581.44;5044777;28;20033;-76
2024/01/29 11:26:42;;;;;;;8.20;2.40;;;;;;;4.90;44.80;95576.22;5044892;28;20025;-76
2024/01/29 11:29:10;;;;;;;8.10;2.10;;;;;;;4.80;45.19;95587.38;5044977;28;20017;-76